createdAt,value
2023-04-06T00:00:43.844Z,101133.69
2023-04-06T00:06:05.868Z,101121.78
2023-04-06T00:11:28.076Z,101123.47
2023-04-06T00:16:50.019Z,101104.84
2023-04-06T00:22:11.969Z,101117.41
2023-04-06T00:27:34.031Z,101106.19
2023-04-06T00:32:55.875Z,101107.28
2023-04-06T00:38:18.390Z,101098.81
2023-04-06T00:43:40.262Z,101092.81
2023-04-06T00:49:02.127Z,101095.22
2023-04-06T00:54:23.975Z,101095.31
2023-04-06T00:59:46.220Z,101093.69
2023-04-06T01:05:08.424Z,101087.81
2023-04-06T01:10:30.521Z,101086.19
2023-04-06T01:15:52.601Z,101070.94
2023-04-06T01:21:14.511Z,101072.63
2023-04-06T01:26:38.098Z,101075.94
2023-04-06T01:31:59.978Z,101065.84
2023-04-06T01:37:23.026Z,101047.94
2023-04-06T01:42:44.997Z,101058.91
2023-04-06T01:48:08.537Z,101052.31
2023-04-06T01:53:30.401Z,101056.53
2023-04-06T01:58:52.284Z,101050.53
2023-04-06T02:04:14.170Z,101043.72
2023-04-06T02:09:36.654Z,101050.38
2023-04-06T02:14:58.514Z,101028.19
2023-04-06T02:20:20.571Z,101038.25
2023-04-06T02:25:42.483Z,101035.81
2023-04-06T02:31:04.410Z,101027.38
2023-04-06T02:36:26.257Z,101035.56
2023-04-06T02:41:48.106Z,101029.44
2023-04-06T02:47:09.947Z,101025.97
2023-04-06T02:52:31.957Z,101029.28
2023-04-06T02:57:53.753Z,101023.34
2023-04-06T03:03:15.705Z,101025.78
2023-04-06T03:08:37.733Z,101032.88
2023-04-06T03:13:59.579Z,101029.81
2023-04-06T03:19:21.388Z,101031.44
2023-04-06T03:24:43.246Z,101032.53
2023-04-06T03:30:05.814Z,101025.53
2023-04-06T03:35:27.748Z,101039.72
2023-04-06T03:40:49.613Z,101036.66
2023-04-06T03:46:11.571Z,101042.47
2023-04-06T03:51:33.490Z,101033.06
2023-04-06T03:56:55.317Z,101027.22
2023-04-06T04:02:17.170Z,101045.00
2023-04-06T04:07:39.185Z,101035.06
2023-04-06T04:13:01.040Z,101033.19
2023-04-06T04:18:22.905Z,101034.09
2023-04-06T04:23:44.773Z,101027.38
2023-04-06T04:29:07.330Z,101011.28
2023-04-06T04:34:29.457Z,101028.31
2023-04-06T04:39:51.277Z,101022.00
2023-04-06T04:45:13.086Z,101009.19
2023-04-06T04:50:34.985Z,101005.78
2023-04-06T04:55:56.990Z,101001.84
2023-04-06T05:01:18.923Z,100985.75
2023-04-06T05:06:40.932Z,101000.06
2023-04-06T05:12:03.378Z,101001.16
2023-04-06T05:17:25.294Z,101004.03
2023-04-06T05:22:47.242Z,101014.09
2023-04-06T05:28:09.134Z,101009.47
2023-04-06T05:33:31.058Z,101003.72
2023-04-06T05:38:52.906Z,100991.22
2023-04-06T05:44:14.777Z,101000.94
2023-04-06T05:49:36.776Z,100987.63
2023-04-06T05:54:58.617Z,100977.94
2023-04-06T06:00:20.798Z,100983.22
2023-04-06T06:05:42.657Z,100980.66
2023-04-06T06:11:04.720Z,100982.34
2023-04-06T06:16:26.594Z,100977.59
2023-04-06T06:21:48.500Z,100979.25
2023-04-06T06:27:10.332Z,100969.41
2023-04-06T06:32:33.137Z,100978.44
2023-04-06T06:37:55.009Z,100972.47
2023-04-06T06:43:16.905Z,100975.19
2023-04-06T06:48:38.742Z,100947.00
2023-04-06T06:54:00.552Z,100982.75
2023-04-06T06:59:22.541Z,100962.75
2023-04-06T07:04:44.406Z,100939.91
2023-04-06T07:10:06.967Z,100961.94
2023-04-06T07:15:28.834Z,100925.25
2023-04-06T07:20:50.704Z,100969.50
2023-04-06T07:26:12.576Z,100958.94
2023-04-06T07:31:34.470Z,100952.13
2023-04-06T07:36:56.337Z,100968.31
2023-04-06T07:42:18.235Z,100954.00
2023-04-06T07:47:40.137Z,100942.94
2023-04-06T07:53:02.035Z,100962.72
2023-04-06T07:58:23.895Z,100947.28
2023-04-06T08:03:45.869Z,100950.44
2023-04-06T08:09:07.861Z,100922.53
2023-04-06T08:14:29.706Z,100929.25
2023-04-06T08:19:51.509Z,100947.25
2023-04-06T08:25:13.895Z,100918.09
2023-04-06T08:30:36.218Z,100946.00
2023-04-06T08:35:58.426Z,100918.03
2023-04-06T08:41:20.740Z,100932.06
2023-04-06T08:46:42.716Z,100928.00
2023-04-06T08:52:07.521Z,100902.56
2023-04-06T08:57:30.070Z,100919.16
2023-04-06T09:02:54.818Z,100902.88
2023-04-06T09:08:16.774Z,100920.34
2023-04-06T09:13:56.276Z,100901.94
2023-04-06T09:19:18.112Z,100888.44
2023-04-06T09:24:52.086Z,100897.44
2023-04-06T09:30:14.615Z,100893.38
2023-04-06T09:35:36.561Z,100878.81
2023-04-06T09:41:01.102Z,100865.88
2023-04-06T09:46:24.076Z,100861.84
2023-04-06T09:51:56.269Z,100843.91
2023-04-06T09:57:18.053Z,100862.59
2023-04-06T10:03:13.394Z,100856.88
2023-04-06T10:08:37.417Z,100833.94
2023-04-06T10:13:59.398Z,100841.53
2023-04-06T10:19:30.050Z,100834.66
2023-04-06T10:24:51.933Z,100834.31
2023-04-06T10:30:16.745Z,100862.41
2023-04-06T10:35:39.017Z,100841.00
2023-04-06T10:41:09.147Z,100824.09
2023-04-06T10:46:32.546Z,100832.81
2023-04-06T10:51:57.942Z,100817.38
2023-04-06T10:57:29.482Z,100822.50
2023-04-06T11:02:51.458Z,100820.09
2023-04-06T11:08:28.328Z,100812.44
2023-04-06T11:13:56.033Z,100797.09
2023-04-06T11:19:18.699Z,100791.81
2023-04-06T11:24:40.595Z,100799.44
2023-04-06T11:30:03.177Z,100795.44
2023-04-06T11:35:25.109Z,100776.72
2023-04-06T11:40:47.106Z,100774.94
2023-04-06T11:51:28.393Z,100759.75
2023-04-06T11:56:50.220Z,100757.88
2023-04-06T12:02:12.274Z,100769.97
2023-04-06T12:07:34.269Z,100737.63
2023-04-06T12:12:56.120Z,100741.00
2023-04-06T12:18:17.933Z,100727.47
2023-04-06T12:23:39.758Z,100726.56
2023-04-06T12:29:01.621Z,100720.53
2023-04-06T12:34:23.448Z,100737.53
2023-04-06T12:39:45.355Z,100717.13
2023-04-06T12:45:07.941Z,100720.66
2023-04-06T12:50:29.807Z,100730.78
2023-04-06T12:55:54.369Z,100711.31
2023-04-06T13:01:16.408Z,100727.47
2023-04-06T13:06:38.313Z,100711.28
2023-04-06T13:12:00.233Z,100695.97
2023-04-06T13:17:22.199Z,100714.63
2023-04-06T13:22:44.231Z,100693.41
2023-04-06T13:28:06.068Z,100681.44
2023-04-06T13:33:29.002Z,100701.09
2023-04-06T13:38:50.873Z,100687.41
2023-04-06T13:44:12.750Z,100665.28
2023-04-06T13:49:34.643Z,100658.41
2023-04-06T13:54:56.660Z,100673.75
2023-04-06T14:00:19.148Z,100652.50
2023-04-06T14:05:41.016Z,100666.06
2023-04-06T14:11:02.813Z,100667.78
2023-04-06T14:16:25.030Z,100651.66
2023-04-06T14:21:47.277Z,100642.34
2023-04-06T14:27:09.086Z,100650.84
2023-04-06T14:32:30.950Z,100661.88
2023-04-06T14:37:52.774Z,100666.13
2023-04-06T14:43:14.898Z,100644.00
2023-04-06T14:48:36.995Z,100643.16
2023-04-06T14:53:58.811Z,100643.16
2023-04-06T14:59:20.608Z,100614.19
2023-04-06T15:04:42.427Z,100646.59
2023-04-06T15:10:05.695Z,100644.91
2023-04-06T15:15:27.533Z,100629.50
2023-04-06T15:20:49.330Z,100647.38
2023-04-06T15:26:11.169Z,100629.50
2023-04-06T15:37:14.753Z,100627.72
2023-04-06T15:42:36.598Z,100610.69
2023-04-06T15:47:58.465Z,100609.94
2023-04-06T15:53:20.333Z,100620.13
2023-04-06T15:58:42.204Z,100623.56
2023-04-06T16:04:07.300Z,100624.38
2023-04-06T16:09:29.204Z,100628.66
2023-04-06T16:14:51.277Z,100629.50
2023-04-06T16:20:13.119Z,100626.13
2023-04-06T16:25:34.965Z,100623.53
2023-04-06T16:30:56.771Z,100607.38
2023-04-06T16:36:36.993Z,100605.59
2023-04-06T16:41:59.441Z,100608.22
2023-04-06T16:47:22.070Z,100608.22
2023-04-06T16:52:44.400Z,100604.75
2023-04-06T16:58:06.804Z,100603.97
2023-04-06T17:03:30.719Z,100616.66
2023-04-06T17:08:53.151Z,100620.06
2023-04-06T17:14:15.238Z,100612.38
2023-04-06T17:19:37.094Z,100626.88
2023-04-06T17:24:58.997Z,100612.41
2023-04-06T17:30:20.976Z,100603.91
2023-04-06T17:35:42.836Z,100620.97
2023-04-06T17:41:04.768Z,100626.94
2023-04-06T17:46:26.914Z,100626.84
2023-04-06T17:51:49.045Z,100620.03
2023-04-06T17:57:10.923Z,100631.09
2023-04-06T18:02:32.885Z,100618.34
2023-04-06T18:07:54.916Z,100620.94
2023-04-06T18:13:16.864Z,100630.34
2023-04-06T18:18:38.755Z,100626.94
2023-04-06T18:24:04.788Z,100626.03
2023-04-06T18:29:27.899Z,100619.19
2023-04-06T18:34:49.809Z,100610.69
2023-04-06T18:40:34.225Z,100605.59
2023-04-06T18:45:56.103Z,100606.47
2023-04-06T18:51:18.322Z,100596.25
2023-04-06T18:56:40.245Z,100603.06
2023-04-06T19:02:02.263Z,100599.69
2023-04-06T19:07:24.158Z,100592.84
2023-04-06T19:12:46.005Z,100582.69
2023-04-06T19:18:07.848Z,100589.50
2023-04-06T19:23:29.762Z,100590.25
2023-04-06T19:28:51.597Z,100579.22
2023-04-06T19:34:13.436Z,100585.19
2023-04-06T19:39:35.384Z,100587.72
2023-04-06T19:44:58.519Z,100582.59
2023-04-06T19:50:20.619Z,100562.22
2023-04-06T19:55:42.481Z,100569.88
2023-04-06T20:01:04.655Z,100582.59
2023-04-06T20:06:26.554Z,100579.25
2023-04-06T20:11:48.712Z,100561.38
2023-04-06T20:17:10.509Z,100536.69
2023-04-06T20:22:32.515Z,100553.72
2023-04-06T20:27:54.404Z,100547.75
2023-04-06T20:33:16.298Z,100557.09
2023-04-06T20:38:38.265Z,100557.97
2023-04-06T20:44:00.182Z,100560.53
2023-04-06T20:49:22.101Z,100539.25
2023-04-06T20:54:44.030Z,100546.06
2023-04-06T21:00:06.566Z,100536.72
2023-04-06T21:05:28.587Z,100566.53
2023-04-06T21:10:50.482Z,100557.97
2023-04-06T21:16:12.394Z,100541.84
2023-04-06T21:21:34.292Z,100535.91
2023-04-06T21:26:56.184Z,100547.81
2023-04-06T21:32:18.322Z,100537.59
2023-04-06T21:37:40.224Z,100470.38
2023-04-06T21:43:02.306Z,100524.84
2023-04-06T21:48:24.231Z,100500.16
2023-04-06T21:53:47.269Z,100514.63
2023-04-06T21:59:09.290Z,100491.66
2023-04-06T22:04:32.020Z,100500.16
2023-04-06T22:09:54.110Z,100498.44
2023-04-06T22:15:16.576Z,100503.56
2023-04-06T22:20:38.597Z,100491.66
2023-04-06T22:26:00.581Z,100495.03
2023-04-06T22:31:22.550Z,100484.81
2023-04-06T22:36:44.396Z,100480.56
2023-04-06T22:42:06.283Z,100460.16
2023-04-06T22:47:28.245Z,100471.19
2023-04-06T22:52:50.375Z,100470.34
2023-04-06T22:58:12.698Z,100470.31
2023-04-06T23:03:34.677Z,100461.78
2023-04-06T23:08:56.620Z,100464.34
2023-04-06T23:14:18.734Z,100458.38
2023-04-06T23:19:40.861Z,100453.28
2023-04-06T23:25:02.758Z,100448.09
2023-04-06T23:30:24.649Z,100451.50
2023-04-06T23:35:46.639Z,100442.13
2023-04-06T23:41:08.576Z,100430.97
2023-04-06T23:46:30.478Z,100414.88
2023-04-06T23:51:52.372Z,100421.63
2023-04-06T23:57:14.244Z,100425.00
